sensor_id;sensor_type;location;lat;lon;timestamp;P1;durP1;ratioP1;P2;durP2;ratioP2
80675;SDS011;70041;46.088;18.268;2023-08-31T00:01:03;6.15;;;2.00;;
80675;SDS011;70041;46.088;18.268;2023-08-31T00:03:29;7.33;;;2.10;;
80675;SDS011;70041;46.088;18.268;2023-08-31T00:05:55;5.00;;;2.03;;
80675;SDS011;70041;46.088;18.268;2023-08-31T00:08:20;6.00;;;1.93;;
80675;SDS011;70041;46.088;18.268;2023-08-31T00:10:54;4.70;;;1.77;;
80675;SDS011;70041;46.088;18.268;2023-08-31T00:13:21;5.00;;;1.80;;
80675;SDS011;70041;46.088;18.268;2023-08-31T00:15:46;4.50;;;1.70;;
80675;SDS011;70041;46.088;18.268;2023-08-31T00:18:11;6.23;;;2.00;;
80675;SDS011;70041;46.088;18.268;2023-08-31T00:20:37;5.00;;;1.88;;
80675;SDS011;70041;46.088;18.268;2023-08-31T00:23:03;4.73;;;1.83;;
80675;SDS011;70041;46.088;18.268;2023-08-31T00:25:29;4.28;;;1.85;;
80675;SDS011;70041;46.088;18.268;2023-08-31T00:27:54;5.20;;;2.27;;
80675;SDS011;70041;46.088;18.268;2023-08-31T00:30:21;6.03;;;1.83;;
80675;SDS011;70041;46.088;18.268;2023-08-31T00:32:50;4.63;;;1.83;;
80675;SDS011;70041;46.088;18.268;2023-08-31T00:35:18;5.00;;;1.80;;
80675;SDS011;70041;46.088;18.268;2023-08-31T00:37:44;4.70;;;1.60;;
80675;SDS011;70041;46.088;18.268;2023-08-31T00:40:10;5.43;;;1.90;;
80675;SDS011;70041;46.088;18.268;2023-08-31T00:42:39;4.83;;;1.80;;
80675;SDS011;70041;46.088;18.268;2023-08-31T00:45:05;4.93;;;1.90;;
80675;SDS011;70041;46.088;18.268;2023-08-31T00:47:31;4.28;;;1.65;;
80675;SDS011;70041;46.088;18.268;2023-08-31T00:49:56;4.93;;;1.70;;
80675;SDS011;70041;46.088;18.268;2023-08-31T00:52:21;4.33;;;1.70;;
80675;SDS011;70041;46.088;18.268;2023-08-31T00:54:47;4.13;;;1.80;;
80675;SDS011;70041;46.088;18.268;2023-08-31T00:57:16;4.40;;;1.67;;
80675;SDS011;70041;46.088;18.268;2023-08-31T00:59:41;4.78;;;1.77;;
80675;SDS011;70041;46.088;18.268;2023-08-31T01:05:00;4.93;;;1.75;;
80675;SDS011;70041;46.088;18.268;2023-08-31T01:10:22;5.00;;;1.95;;
80675;SDS011;70041;46.088;18.268;2023-08-31T01:13:03;4.85;;;1.70;;
80675;SDS011;70041;46.088;18.268;2023-08-31T01:15:39;4.68;;;1.80;;
80675;SDS011;70041;46.088;18.268;2023-08-31T01:18:06;4.35;;;1.50;;
80675;SDS011;70041;46.088;18.268;2023-08-31T01:20:46;4.57;;;1.77;;
80675;SDS011;70041;46.088;18.268;2023-08-31T01:23:22;4.60;;;1.88;;
80675;SDS011;70041;46.088;18.268;2023-08-31T01:25:56;5.63;;;1.92;;
80675;SDS011;70041;46.088;18.268;2023-08-31T01:28:22;4.88;;;1.60;;
80675;SDS011;70041;46.088;18.268;2023-08-31T01:30:48;6.97;;;1.90;;
80675;SDS011;70041;46.088;18.268;2023-08-31T01:33:13;4.00;;;1.50;;
80675;SDS011;70041;46.088;18.268;2023-08-31T01:35:44;4.85;;;1.65;;
80675;SDS011;70041;46.088;18.268;2023-08-31T01:38:14;4.88;;;1.52;;
80675;SDS011;70041;46.088;18.268;2023-08-31T01:40:44;3.90;;;1.55;;
80675;SDS011;70041;46.088;18.268;2023-08-31T01:43:15;4.00;;;1.83;;
80675;SDS011;70041;46.088;18.268;2023-08-31T01:45:42;6.57;;;2.00;;
80675;SDS011;70041;46.088;18.268;2023-08-31T01:48:10;5.90;;;1.80;;
80675;SDS011;70041;46.088;18.268;2023-08-31T01:50:36;5.32;;;1.90;;
80675;SDS011;70041;46.088;18.268;2023-08-31T01:53:01;5.47;;;2.07;;
80675;SDS011;70041;46.088;18.268;2023-08-31T01:55:27;5.97;;;1.87;;
80675;SDS011;70041;46.088;18.268;2023-08-31T01:57:52;4.72;;;1.92;;
80675;SDS011;70041;46.088;18.268;2023-08-31T02:00:18;5.10;;;2.17;;
80675;SDS011;70041;46.088;18.268;2023-08-31T02:02:44;5.15;;;2.33;;
80675;SDS011;70041;46.088;18.268;2023-08-31T02:05:10;5.13;;;2.17;;
80675;SDS011;70041;46.088;18.268;2023-08-31T02:07:35;5.63;;;2.30;;
80675;SDS011;70041;46.088;18.268;2023-08-31T02:10:01;5.93;;;2.42;;
80675;SDS011;70041;46.088;18.268;2023-08-31T02:12:27;6.80;;;2.30;;
80675;SDS011;70041;46.088;18.268;2023-08-31T02:14:52;8.70;;;2.80;;
80675;SDS011;70041;46.088;18.268;2023-08-31T02:17:18;8.17;;;3.10;;
80675;SDS011;70041;46.088;18.268;2023-08-31T02:19:43;7.53;;;3.23;;
80675;SDS011;70041;46.088;18.268;2023-08-31T02:22:08;5.40;;;2.37;;
80675;SDS011;70041;46.088;18.268;2023-08-31T02:24:34;6.38;;;2.30;;
80675;SDS011;70041;46.088;18.268;2023-08-31T02:26:59;5.87;;;2.30;;
80675;SDS011;70041;46.088;18.268;2023-08-31T02:29:25;7.27;;;2.50;;
80675;SDS011;70041;46.088;18.268;2023-08-31T02:31:50;6.47;;;2.70;;
80675;SDS011;70041;46.088;18.268;2023-08-31T02:34:15;7.30;;;3.20;;
80675;SDS011;70041;46.088;18.268;2023-08-31T02:36:41;7.23;;;2.97;;
80675;SDS011;70041;46.088;18.268;2023-08-31T02:39:06;7.60;;;2.67;;
80675;SDS011;70041;46.088;18.268;2023-08-31T02:41:32;6.10;;;2.83;;
80675;SDS011;70041;46.088;18.268;2023-08-31T02:43:57;6.70;;;2.73;;
80675;SDS011;70041;46.088;18.268;2023-08-31T02:46:23;5.95;;;2.65;;
80675;SDS011;70041;46.088;18.268;2023-08-31T02:48:49;5.43;;;2.60;;
80675;SDS011;70041;46.088;18.268;2023-08-31T02:51:15;7.53;;;2.55;;
80675;SDS011;70041;46.088;18.268;2023-08-31T02:53:40;7.45;;;2.60;;
80675;SDS011;70041;46.088;18.268;2023-08-31T02:56:06;7.60;;;2.37;;
80675;SDS011;70041;46.088;18.268;2023-08-31T02:58:32;6.50;;;2.58;;
80675;SDS011;70041;46.088;18.268;2023-08-31T03:01:10;8.37;;;2.73;;
80675;SDS011;70041;46.088;18.268;2023-08-31T03:03:40;6.47;;;3.00;;
80675;SDS011;70041;46.088;18.268;2023-08-31T03:06:06;7.20;;;2.70;;
80675;SDS011;70041;46.088;18.268;2023-08-31T03:08:35;6.05;;;2.75;;
80675;SDS011;70041;46.088;18.268;2023-08-31T03:11:02;6.40;;;2.57;;
80675;SDS011;70041;46.088;18.268;2023-08-31T03:13:27;5.75;;;2.72;;
80675;SDS011;70041;46.088;18.268;2023-08-31T03:15:53;6.53;;;2.80;;
80675;SDS011;70041;46.088;18.268;2023-08-31T03:18:18;6.20;;;2.72;;
80675;SDS011;70041;46.088;18.268;2023-08-31T03:20:44;7.00;;;3.00;;
80675;SDS011;70041;46.088;18.268;2023-08-31T03:23:09;9.47;;;2.97;;
80675;SDS011;70041;46.088;18.268;2023-08-31T03:25:36;5.68;;;2.70;;
80675;SDS011;70041;46.088;18.268;2023-08-31T03:28:02;6.55;;;2.97;;
80675;SDS011;70041;46.088;18.268;2023-08-31T03:30:27;6.93;;;2.63;;
80675;SDS011;70041;46.088;18.268;2023-08-31T03:32:53;6.30;;;3.00;;
80675;SDS011;70041;46.088;18.268;2023-08-31T03:35:19;6.60;;;2.83;;
80675;SDS011;70041;46.088;18.268;2023-08-31T03:37:46;6.37;;;2.80;;
80675;SDS011;70041;46.088;18.268;2023-08-31T03:40:12;6.15;;;2.55;;
80675;SDS011;70041;46.088;18.268;2023-08-31T03:42:38;10.87;;;3.37;;
80675;SDS011;70041;46.088;18.268;2023-08-31T03:45:04;5.77;;;2.53;;
80675;SDS011;70041;46.088;18.268;2023-08-31T03:47:30;6.75;;;2.90;;
80675;SDS011;70041;46.088;18.268;2023-08-31T03:49:55;8.23;;;3.30;;
80675;SDS011;70041;46.088;18.268;2023-08-31T03:52:21;9.00;;;3.30;;
80675;SDS011;70041;46.088;18.268;2023-08-31T03:54:47;6.35;;;3.00;;
80675;SDS011;70041;46.088;18.268;2023-08-31T03:57:13;8.23;;;3.23;;
80675;SDS011;70041;46.088;18.268;2023-08-31T03:59:38;7.13;;;2.90;;
80675;SDS011;70041;46.088;18.268;2023-08-31T04:02:04;7.03;;;3.00;;
80675;SDS011;70041;46.088;18.268;2023-08-31T04:04:29;7.15;;;2.85;;
80675;SDS011;70041;46.088;18.268;2023-08-31T04:06:54;6.00;;;2.60;;
80675;SDS011;70041;46.088;18.268;2023-08-31T04:09:20;6.57;;;3.17;;
80675;SDS011;70041;46.088;18.268;2023-08-31T04:11:45;7.37;;;3.23;;
80675;SDS011;70041;46.088;18.268;2023-08-31T04:14:11;8.57;;;3.58;;
80675;SDS011;70041;46.088;18.268;2023-08-31T04:16:37;6.70;;;3.33;;
80675;SDS011;70041;46.088;18.268;2023-08-31T04:21:49;8.53;;;3.13;;
80675;SDS011;70041;46.088;18.268;2023-08-31T04:24:14;7.13;;;3.47;;
80675;SDS011;70041;46.088;18.268;2023-08-31T04:26:40;8.43;;;3.40;;
80675;SDS011;70041;46.088;18.268;2023-08-31T04:29:05;9.10;;;3.30;;
80675;SDS011;70041;46.088;18.268;2023-08-31T04:31:31;7.43;;;3.80;;
80675;SDS011;70041;46.088;18.268;2023-08-31T04:33:57;7.18;;;3.30;;
80675;SDS011;70041;46.088;18.268;2023-08-31T04:36:23;7.35;;;3.30;;
80675;SDS011;70041;46.088;18.268;2023-08-31T04:38:49;11.63;;;3.30;;
80675;SDS011;70041;46.088;18.268;2023-08-31T04:41:15;8.38;;;3.70;;
80675;SDS011;70041;46.088;18.268;2023-08-31T04:43:40;7.13;;;3.43;;
80675;SDS011;70041;46.088;18.268;2023-08-31T04:46:06;8.75;;;3.67;;
80675;SDS011;70041;46.088;18.268;2023-08-31T04:48:31;8.07;;;3.40;;
80675;SDS011;70041;46.088;18.268;2023-08-31T04:50:57;6.85;;;3.15;;
80675;SDS011;70041;46.088;18.268;2023-08-31T04:53:23;8.37;;;3.33;;
80675;SDS011;70041;46.088;18.268;2023-08-31T04:55:48;6.60;;;2.57;;
80675;SDS011;70041;46.088;18.268;2023-08-31T04:58:14;6.17;;;2.40;;
80675;SDS011;70041;46.088;18.268;2023-08-31T05:00:39;6.30;;;3.27;;
80675;SDS011;70041;46.088;18.268;2023-08-31T05:03:05;5.97;;;2.90;;
80675;SDS011;70041;46.088;18.268;2023-08-31T05:05:30;6.65;;;3.03;;
80675;SDS011;70041;46.088;18.268;2023-08-31T05:07:56;6.33;;;2.83;;
80675;SDS011;70041;46.088;18.268;2023-08-31T05:10:21;7.10;;;3.20;;
80675;SDS011;70041;46.088;18.268;2023-08-31T05:12:47;6.13;;;2.70;;
80675;SDS011;70041;46.088;18.268;2023-08-31T05:15:13;5.93;;;2.73;;
80675;SDS011;70041;46.088;18.268;2023-08-31T05:17:38;7.67;;;3.30;;
80675;SDS011;70041;46.088;18.268;2023-08-31T05:20:04;7.10;;;3.17;;
80675;SDS011;70041;46.088;18.268;2023-08-31T05:22:30;6.87;;;3.40;;
80675;SDS011;70041;46.088;18.268;2023-08-31T05:24:55;8.63;;;3.23;;
80675;SDS011;70041;46.088;18.268;2023-08-31T05:27:21;6.47;;;3.00;;
80675;SDS011;70041;46.088;18.268;2023-08-31T05:29:46;6.73;;;2.80;;
80675;SDS011;70041;46.088;18.268;2023-08-31T05:32:12;6.55;;;3.28;;
80675;SDS011;70041;46.088;18.268;2023-08-31T05:34:37;5.97;;;3.00;;
80675;SDS011;70041;46.088;18.268;2023-08-31T05:37:04;6.45;;;3.42;;
80675;SDS011;70041;46.088;18.268;2023-08-31T05:39:30;9.57;;;3.40;;
80675;SDS011;70041;46.088;18.268;2023-08-31T05:41:56;6.65;;;3.25;;
80675;SDS011;70041;46.088;18.268;2023-08-31T05:44:22;7.53;;;2.97;;
80675;SDS011;70041;46.088;18.268;2023-08-31T05:46:48;6.93;;;3.10;;
80675;SDS011;70041;46.088;18.268;2023-08-31T05:49:13;8.90;;;3.03;;
80675;SDS011;70041;46.088;18.268;2023-08-31T05:51:39;5.73;;;2.87;;
80675;SDS011;70041;46.088;18.268;2023-08-31T05:54:04;6.80;;;3.07;;
80675;SDS011;70041;46.088;18.268;2023-08-31T05:56:35;5.70;;;2.80;;
80675;SDS011;70041;46.088;18.268;2023-08-31T05:59:00;7.67;;;3.20;;
80675;SDS011;70041;46.088;18.268;2023-08-31T06:01:26;6.87;;;2.97;;
80675;SDS011;70041;46.088;18.268;2023-08-31T06:03:52;6.63;;;3.30;;
80675;SDS011;70041;46.088;18.268;2023-08-31T06:06:17;7.70;;;3.70;;
80675;SDS011;70041;46.088;18.268;2023-08-31T06:08:43;8.63;;;3.90;;
80675;SDS011;70041;46.088;18.268;2023-08-31T06:11:08;7.17;;;3.37;;
80675;SDS011;70041;46.088;18.268;2023-08-31T06:13:34;6.87;;;3.53;;
80675;SDS011;70041;46.088;18.268;2023-08-31T06:15:59;7.27;;;3.10;;
80675;SDS011;70041;46.088;18.268;2023-08-31T06:18:25;6.63;;;3.10;;
80675;SDS011;70041;46.088;18.268;2023-08-31T06:20:51;7.35;;;3.05;;
80675;SDS011;70041;46.088;18.268;2023-08-31T06:23:16;6.90;;;2.87;;
80675;SDS011;70041;46.088;18.268;2023-08-31T06:25:42;6.33;;;3.17;;
80675;SDS011;70041;46.088;18.268;2023-08-31T06:28:07;6.55;;;3.33;;
80675;SDS011;70041;46.088;18.268;2023-08-31T06:30:36;7.18;;;3.17;;
80675;SDS011;70041;46.088;18.268;2023-08-31T06:33:01;6.10;;;2.73;;
80675;SDS011;70041;46.088;18.268;2023-08-31T06:35:27;6.57;;;3.03;;
80675;SDS011;70041;46.088;18.268;2023-08-31T06:37:52;6.23;;;2.90;;
80675;SDS011;70041;46.088;18.268;2023-08-31T06:40:20;7.72;;;3.25;;
80675;SDS011;70041;46.088;18.268;2023-08-31T06:42:45;5.90;;;2.90;;
80675;SDS011;70041;46.088;18.268;2023-08-31T06:45:11;6.83;;;3.13;;
80675;SDS011;70041;46.088;18.268;2023-08-31T06:47:36;6.90;;;2.70;;
80675;SDS011;70041;46.088;18.268;2023-08-31T06:50:02;6.03;;;2.83;;
80675;SDS011;70041;46.088;18.268;2023-08-31T06:52:28;7.03;;;3.15;;
80675;SDS011;70041;46.088;18.268;2023-08-31T06:54:54;5.50;;;2.57;;
80675;SDS011;70041;46.088;18.268;2023-08-31T06:57:24;7.15;;;3.38;;
80675;SDS011;70041;46.088;18.268;2023-08-31T06:59:49;6.22;;;3.00;;
80675;SDS011;70041;46.088;18.268;2023-08-31T07:02:15;6.97;;;2.77;;
80675;SDS011;70041;46.088;18.268;2023-08-31T07:04:41;6.47;;;2.67;;
80675;SDS011;70041;46.088;18.268;2023-08-31T07:07:06;5.50;;;2.50;;
80675;SDS011;70041;46.088;18.268;2023-08-31T07:09:33;6.47;;;2.60;;
80675;SDS011;70041;46.088;18.268;2023-08-31T07:12:00;5.38;;;2.67;;
80675;SDS011;70041;46.088;18.268;2023-08-31T07:14:26;5.50;;;2.70;;
80675;SDS011;70041;46.088;18.268;2023-08-31T07:16:52;7.47;;;3.20;;
80675;SDS011;70041;46.088;18.268;2023-08-31T07:19:17;6.40;;;2.50;;
80675;SDS011;70041;46.088;18.268;2023-08-31T07:21:43;6.20;;;2.50;;
80675;SDS011;70041;46.088;18.268;2023-08-31T07:24:08;7.57;;;2.90;;
80675;SDS011;70041;46.088;18.268;2023-08-31T07:26:33;5.20;;;2.40;;
80675;SDS011;70041;46.088;18.268;2023-08-31T07:29:00;5.80;;;2.80;;
80675;SDS011;70041;46.088;18.268;2023-08-31T07:31:26;5.88;;;2.88;;
80675;SDS011;70041;46.088;18.268;2023-08-31T07:33:52;5.70;;;3.00;;
80675;SDS011;70041;46.088;18.268;2023-08-31T07:36:17;8.50;;;2.80;;
80675;SDS011;70041;46.088;18.268;2023-08-31T07:38:43;7.60;;;2.80;;
80675;SDS011;70041;46.088;18.268;2023-08-31T07:41:08;6.20;;;2.40;;
80675;SDS011;70041;46.088;18.268;2023-08-31T07:43:34;6.27;;;2.70;;
80675;SDS011;70041;46.088;18.268;2023-08-31T07:45:59;8.97;;;3.30;;
80675;SDS011;70041;46.088;18.268;2023-08-31T07:48:24;5.40;;;2.57;;
80675;SDS011;70041;46.088;18.268;2023-08-31T07:50:50;5.80;;;2.60;;
80675;SDS011;70041;46.088;18.268;2023-08-31T07:53:15;6.17;;;2.53;;
80675;SDS011;70041;46.088;18.268;2023-08-31T07:55:47;5.57;;;2.40;;
80675;SDS011;70041;46.088;18.268;2023-08-31T07:58:16;6.25;;;2.55;;
80675;SDS011;70041;46.088;18.268;2023-08-31T08:00:41;6.10;;;2.40;;
80675;SDS011;70041;46.088;18.268;2023-08-31T08:03:07;6.20;;;2.63;;
80675;SDS011;70041;46.088;18.268;2023-08-31T08:05:32;6.33;;;2.70;;
80675;SDS011;70041;46.088;18.268;2023-08-31T08:07:58;5.70;;;2.60;;
80675;SDS011;70041;46.088;18.268;2023-08-31T08:10:23;5.23;;;2.40;;
80675;SDS011;70041;46.088;18.268;2023-08-31T08:12:48;5.50;;;2.30;;
80675;SDS011;70041;46.088;18.268;2023-08-31T08:15:14;5.53;;;2.40;;
80675;SDS011;70041;46.088;18.268;2023-08-31T08:17:39;5.30;;;2.30;;
80675;SDS011;70041;46.088;18.268;2023-08-31T08:20:06;6.00;;;2.45;;
80675;SDS011;70041;46.088;18.268;2023-08-31T08:22:32;5.30;;;2.40;;
80675;SDS011;70041;46.088;18.268;2023-08-31T08:24:57;7.22;;;2.40;;
80675;SDS011;70041;46.088;18.268;2023-08-31T08:27:23;6.37;;;2.40;;
80675;SDS011;70041;46.088;18.268;2023-08-31T08:29:48;5.67;;;2.70;;
80675;SDS011;70041;46.088;18.268;2023-08-31T08:32:14;6.23;;;2.43;;
80675;SDS011;70041;46.088;18.268;2023-08-31T08:34:39;6.68;;;2.47;;
80675;SDS011;70041;46.088;18.268;2023-08-31T08:37:04;5.20;;;2.60;;
80675;SDS011;70041;46.088;18.268;2023-08-31T08:39:30;5.40;;;2.33;;
80675;SDS011;70041;46.088;18.268;2023-08-31T08:41:57;6.60;;;2.17;;
80675;SDS011;70041;46.088;18.268;2023-08-31T08:44:24;5.20;;;2.30;;
80675;SDS011;70041;46.088;18.268;2023-08-31T08:46:53;5.60;;;2.60;;
80675;SDS011;70041;46.088;18.268;2023-08-31T08:49:18;6.15;;;2.70;;
80675;SDS011;70041;46.088;18.268;2023-08-31T08:51:45;4.87;;;2.20;;
80675;SDS011;70041;46.088;18.268;2023-08-31T08:54:12;6.18;;;2.45;;
80675;SDS011;70041;46.088;18.268;2023-08-31T08:56:38;6.93;;;2.38;;
80675;SDS011;70041;46.088;18.268;2023-08-31T08:59:04;5.37;;;2.40;;
80675;SDS011;70041;46.088;18.268;2023-08-31T09:01:30;6.45;;;2.78;;
80675;SDS011;70041;46.088;18.268;2023-08-31T09:03:57;7.53;;;2.60;;
80675;SDS011;70041;46.088;18.268;2023-08-31T09:06:22;6.23;;;2.70;;
80675;SDS011;70041;46.088;18.268;2023-08-31T09:08:54;5.77;;;2.53;;
80675;SDS011;70041;46.088;18.268;2023-08-31T09:11:23;5.72;;;2.40;;
80675;SDS011;70041;46.088;18.268;2023-08-31T09:13:49;5.10;;;2.58;;
80675;SDS011;70041;46.088;18.268;2023-08-31T09:16:25;6.40;;;2.55;;
80675;SDS011;70041;46.088;18.268;2023-08-31T09:18:55;5.57;;;2.55;;
80675;SDS011;70041;46.088;18.268;2023-08-31T09:21:21;5.60;;;2.70;;
80675;SDS011;70041;46.088;18.268;2023-08-31T09:23:57;6.07;;;2.42;;
80675;SDS011;70041;46.088;18.268;2023-08-31T09:26:23;5.05;;;2.22;;
80675;SDS011;70041;46.088;18.268;2023-08-31T09:28:48;6.35;;;2.50;;
80675;SDS011;70041;46.088;18.268;2023-08-31T09:31:14;6.47;;;2.63;;
80675;SDS011;70041;46.088;18.268;2023-08-31T09:33:40;7.17;;;2.47;;
80675;SDS011;70041;46.088;18.268;2023-08-31T09:36:15;5.93;;;2.70;;
80675;SDS011;70041;46.088;18.268;2023-08-31T09:38:44;5.73;;;2.60;;
80675;SDS011;70041;46.088;18.268;2023-08-31T09:41:09;4.82;;;2.30;;
80675;SDS011;70041;46.088;18.268;2023-08-31T09:43:35;5.20;;;2.05;;
80675;SDS011;70041;46.088;18.268;2023-08-31T09:46:02;6.20;;;2.40;;
80675;SDS011;70041;46.088;18.268;2023-08-31T09:48:28;5.30;;;2.10;;
80675;SDS011;70041;46.088;18.268;2023-08-31T09:50:55;6.60;;;2.40;;
80675;SDS011;70041;46.088;18.268;2023-08-31T09:53:21;5.60;;;2.30;;
80675;SDS011;70041;46.088;18.268;2023-08-31T09:55:49;6.45;;;2.28;;
80675;SDS011;70041;46.088;18.268;2023-08-31T09:58:19;5.55;;;2.20;;
80675;SDS011;70041;46.088;18.268;2023-08-31T10:00:46;5.05;;;2.17;;
80675;SDS011;70041;46.088;18.268;2023-08-31T10:03:13;5.77;;;2.43;;
80675;SDS011;70041;46.088;18.268;2023-08-31T10:05:40;5.05;;;2.15;;
80675;SDS011;70041;46.088;18.268;2023-08-31T10:08:08;5.60;;;2.35;;
80675;SDS011;70041;46.088;18.268;2023-08-31T10:10:34;6.57;;;2.55;;
80675;SDS011;70041;46.088;18.268;2023-08-31T10:12:59;5.87;;;2.80;;
80675;SDS011;70041;46.088;18.268;2023-08-31T10:15:28;6.60;;;2.80;;
80675;SDS011;70041;46.088;18.268;2023-08-31T10:18:01;4.60;;;2.30;;
80675;SDS011;70041;46.088;18.268;2023-08-31T10:20:28;5.60;;;2.70;;
80675;SDS011;70041;46.088;18.268;2023-08-31T10:22:56;7.13;;;2.80;;
80675;SDS011;70041;46.088;18.268;2023-08-31T10:28:19;6.85;;;2.83;;
80675;SDS011;70041;46.088;18.268;2023-08-31T10:33:40;8.13;;;2.88;;
80675;SDS011;70041;46.088;18.268;2023-08-31T10:36:15;6.47;;;2.87;;
80675;SDS011;70041;46.088;18.268;2023-08-31T10:38:45;6.10;;;3.00;;
80675;SDS011;70041;46.088;18.268;2023-08-31T10:43:56;7.30;;;3.10;;
80675;SDS011;70041;46.088;18.268;2023-08-31T10:51:40;8.25;;;3.70;;
80675;SDS011;70041;46.088;18.268;2023-08-31T10:54:10;6.67;;;3.30;;
80675;SDS011;70041;46.088;18.268;2023-08-31T10:59:46;7.43;;;3.42;;
80675;SDS011;70041;46.088;18.268;2023-08-31T11:02:29;6.57;;;3.20;;
80675;SDS011;70041;46.088;18.268;2023-08-31T11:05:16;6.30;;;2.95;;
80675;SDS011;70041;46.088;18.268;2023-08-31T11:07:43;5.90;;;2.87;;
80675;SDS011;70041;46.088;18.268;2023-08-31T11:10:22;5.78;;;2.70;;
80675;SDS011;70041;46.088;18.268;2023-08-31T11:12:52;5.97;;;2.45;;
80675;SDS011;70041;46.088;18.268;2023-08-31T11:15:19;6.45;;;2.75;;
80675;SDS011;70041;46.088;18.268;2023-08-31T11:17:46;6.05;;;2.90;;
80675;SDS011;70041;46.088;18.268;2023-08-31T11:20:13;6.03;;;2.90;;
80675;SDS011;70041;46.088;18.268;2023-08-31T11:22:40;6.28;;;2.70;;
80675;SDS011;70041;46.088;18.268;2023-08-31T11:25:07;6.35;;;3.03;;
80675;SDS011;70041;46.088;18.268;2023-08-31T11:27:36;5.90;;;3.03;;
80675;SDS011;70041;46.088;18.268;2023-08-31T11:30:02;6.28;;;2.60;;
80675;SDS011;70041;46.088;18.268;2023-08-31T11:32:29;5.40;;;2.60;;
80675;SDS011;70041;46.088;18.268;2023-08-31T11:34:54;6.20;;;3.53;;
80675;SDS011;70041;46.088;18.268;2023-08-31T11:37:20;6.10;;;2.70;;
80675;SDS011;70041;46.088;18.268;2023-08-31T11:39:52;6.50;;;3.20;;
80675;SDS011;70041;46.088;18.268;2023-08-31T11:42:19;5.82;;;2.80;;
80675;SDS011;70041;46.088;18.268;2023-08-31T11:44:47;5.83;;;2.60;;
80675;SDS011;70041;46.088;18.268;2023-08-31T11:47:14;5.82;;;2.60;;
80675;SDS011;70041;46.088;18.268;2023-08-31T11:49:41;6.95;;;3.17;;
80675;SDS011;70041;46.088;18.268;2023-08-31T11:52:08;6.07;;;2.55;;
80675;SDS011;70041;46.088;18.268;2023-08-31T11:54:38;8.88;;;3.47;;
80675;SDS011;70041;46.088;18.268;2023-08-31T11:57:06;5.97;;;2.80;;
80675;SDS011;70041;46.088;18.268;2023-08-31T11:59:34;6.20;;;3.10;;
80675;SDS011;70041;46.088;18.268;2023-08-31T12:02:06;6.32;;;3.00;;
80675;SDS011;70041;46.088;18.268;2023-08-31T12:04:44;6.20;;;2.92;;
80675;SDS011;70041;46.088;18.268;2023-08-31T12:07:11;6.85;;;2.78;;
80675;SDS011;70041;46.088;18.268;2023-08-31T12:09:40;5.63;;;2.97;;
80675;SDS011;70041;46.088;18.268;2023-08-31T12:12:07;6.75;;;2.80;;
80675;SDS011;70041;46.088;18.268;2023-08-31T12:14:33;6.85;;;2.72;;
80675;SDS011;70041;46.088;18.268;2023-08-31T12:17:02;5.63;;;2.67;;
80675;SDS011;70041;46.088;18.268;2023-08-31T12:19:31;5.38;;;2.65;;
80675;SDS011;70041;46.088;18.268;2023-08-31T12:21:57;6.68;;;2.63;;
80675;SDS011;70041;46.088;18.268;2023-08-31T12:24:23;5.93;;;2.92;;
80675;SDS011;70041;46.088;18.268;2023-08-31T12:26:49;6.43;;;3.17;;
80675;SDS011;70041;46.088;18.268;2023-08-31T12:29:15;8.57;;;3.13;;
80675;SDS011;70041;46.088;18.268;2023-08-31T12:31:41;5.60;;;2.70;;
80675;SDS011;70041;46.088;18.268;2023-08-31T12:34:08;7.78;;;2.65;;
80675;SDS011;70041;46.088;18.268;2023-08-31T12:36:35;5.80;;;2.50;;
80675;SDS011;70041;46.088;18.268;2023-08-31T12:39:03;7.70;;;2.70;;
80675;SDS011;70041;46.088;18.268;2023-08-31T12:41:31;5.67;;;2.30;;
80675;SDS011;70041;46.088;18.268;2023-08-31T12:43:57;5.70;;;2.97;;
80675;SDS011;70041;46.088;18.268;2023-08-31T12:46:23;5.27;;;2.63;;
80675;SDS011;70041;46.088;18.268;2023-08-31T12:48:49;6.05;;;2.50;;
80675;SDS011;70041;46.088;18.268;2023-08-31T12:51:15;8.23;;;2.60;;
80675;SDS011;70041;46.088;18.268;2023-08-31T12:53:41;6.18;;;2.70;;
80675;SDS011;70041;46.088;18.268;2023-08-31T12:56:06;5.60;;;2.67;;
80675;SDS011;70041;46.088;18.268;2023-08-31T12:58:32;5.97;;;2.57;;
80675;SDS011;70041;46.088;18.268;2023-08-31T13:01:00;4.67;;;2.43;;
80675;SDS011;70041;46.088;18.268;2023-08-31T13:03:26;5.22;;;2.25;;
80675;SDS011;70041;46.088;18.268;2023-08-31T13:05:51;6.45;;;2.20;;
80675;SDS011;70041;46.088;18.268;2023-08-31T13:08:17;6.13;;;2.50;;
80675;SDS011;70041;46.088;18.268;2023-08-31T13:10:42;4.97;;;2.30;;
80675;SDS011;70041;46.088;18.268;2023-08-31T13:13:08;5.50;;;2.15;;
80675;SDS011;70041;46.088;18.268;2023-08-31T13:15:33;5.10;;;2.10;;
80675;SDS011;70041;46.088;18.268;2023-08-31T13:17:59;7.70;;;2.40;;
80675;SDS011;70041;46.088;18.268;2023-08-31T13:20:25;5.88;;;2.10;;
80675;SDS011;70041;46.088;18.268;2023-08-31T13:22:52;5.72;;;2.30;;
80675;SDS011;70041;46.088;18.268;2023-08-31T13:25:17;5.43;;;2.20;;
80675;SDS011;70041;46.088;18.268;2023-08-31T13:27:43;8.07;;;2.35;;
80675;SDS011;70041;46.088;18.268;2023-08-31T13:30:09;5.28;;;2.40;;
80675;SDS011;70041;46.088;18.268;2023-08-31T13:32:37;6.27;;;1.90;;
80675;SDS011;70041;46.088;18.268;2023-08-31T13:35:02;5.60;;;2.28;;
80675;SDS011;70041;46.088;18.268;2023-08-31T13:37:32;4.80;;;1.80;;
80675;SDS011;70041;46.088;18.268;2023-08-31T13:39:58;4.70;;;1.88;;
80675;SDS011;70041;46.088;18.268;2023-08-31T13:42:23;4.83;;;1.93;;
80675;SDS011;70041;46.088;18.268;2023-08-31T13:44:49;5.85;;;1.80;;
80675;SDS011;70041;46.088;18.268;2023-08-31T13:47:14;4.47;;;1.80;;
80675;SDS011;70041;46.088;18.268;2023-08-31T13:49:39;4.07;;;1.73;;
80675;SDS011;70041;46.088;18.268;2023-08-31T13:52:05;5.20;;;1.90;;
80675;SDS011;70041;46.088;18.268;2023-08-31T13:54:31;4.18;;;1.80;;
80675;SDS011;70041;46.088;18.268;2023-08-31T13:56:58;5.70;;;2.00;;
80675;SDS011;70041;46.088;18.268;2023-08-31T13:59:24;4.97;;;1.73;;
80675;SDS011;70041;46.088;18.268;2023-08-31T14:01:52;4.30;;;1.80;;
80675;SDS011;70041;46.088;18.268;2023-08-31T14:04:18;4.37;;;1.80;;
80675;SDS011;70041;46.088;18.268;2023-08-31T14:06:44;5.35;;;2.15;;
80675;SDS011;70041;46.088;18.268;2023-08-31T14:09:09;5.83;;;2.00;;
80675;SDS011;70041;46.088;18.268;2023-08-31T14:11:34;5.97;;;1.83;;
80675;SDS011;70041;46.088;18.268;2023-08-31T14:14:01;4.55;;;1.73;;
80675;SDS011;70041;46.088;18.268;2023-08-31T14:16:34;3.97;;;1.63;;
80675;SDS011;70041;46.088;18.268;2023-08-31T14:19:01;5.67;;;2.03;;
80675;SDS011;70041;46.088;18.268;2023-08-31T14:21:27;4.97;;;2.03;;
80675;SDS011;70041;46.088;18.268;2023-08-31T14:23:52;5.03;;;2.00;;
80675;SDS011;70041;46.088;18.268;2023-08-31T14:26:21;5.50;;;1.80;;
80675;SDS011;70041;46.088;18.268;2023-08-31T14:28:48;5.43;;;2.08;;
80675;SDS011;70041;46.088;18.268;2023-08-31T14:31:13;3.60;;;1.70;;
80675;SDS011;70041;46.088;18.268;2023-08-31T14:33:40;5.07;;;2.00;;
80675;SDS011;70041;46.088;18.268;2023-08-31T14:36:06;4.80;;;1.98;;
80675;SDS011;70041;46.088;18.268;2023-08-31T14:38:31;5.30;;;1.87;;
80675;SDS011;70041;46.088;18.268;2023-08-31T14:40:57;4.60;;;1.90;;
80675;SDS011;70041;46.088;18.268;2023-08-31T14:43:22;5.27;;;1.97;;
80675;SDS011;70041;46.088;18.268;2023-08-31T14:45:47;4.82;;;2.13;;
80675;SDS011;70041;46.088;18.268;2023-08-31T14:48:13;5.20;;;2.00;;
80675;SDS011;70041;46.088;18.268;2023-08-31T14:50:42;5.50;;;2.13;;
80675;SDS011;70041;46.088;18.268;2023-08-31T14:53:08;5.20;;;1.95;;
80675;SDS011;70041;46.088;18.268;2023-08-31T14:55:34;5.03;;;2.07;;